Etusivu
METAR-TAF:

METAR-TAF

Lentoasemat :

Alma, Michigan, Yhdysvallat

Leveyspiiri: 43-19-19N, Pituuspiiri: 084-41-16W, korkeus merenpinnasta: 229 m

Tämänhetkinen sää

Tämä raportti tehtiin 17 minuuttia sitten, kello 14.36 UTC
Tuuli 10 kn idästä/kaakosta puuskistuen 14 kn:hen
Lämpötila 12°C
Kosteus 82%
Ilmanpaine 1016 hPa
Näkyvyys: 16.1 km
Hajonneita pilviä 2800 ft:n korkeudessa
Hajonneita pilviä 3600 ft:n korkeudessa
Pilvistä 4500 ft:n korkeudessa
heikkoa sadetta

METAR: KAMN 221436Z AUTO 11010G14KT 10SM -RA BKN028 BKN036 OVC045 12/09 A3000 RMK AO2 T01200085

Aika: 10:53 (14:53 UTC)


TAF: puuttuu

Säähavainnot ja -ennusteet yli 4000 lentoasemalta (METAR- ja TAF-raportit).

Käytössä olevat sääasemat on merkitty karttaan keltaisilla ja punaisilla pisteillä.

Aseta hiiri pisteen päälle nähdäksesi sääaseman nimen.

Klikkaa sitten nähdäksesi säähavainnot ja -ennusteet.

Kartan vaihtaminen: klikkaa mustalla rastilla varustettuja vihreitä pisteitä, niin voit zoomata sisään; viivalla varustettua vihreää pistettä, niin voit zoomata ulos tai vihreitä nuolia, niin pääset viereisille kartoille.


METAR-TAF: